Time;durP1;ratioP1;P1;durP2;ratioP2;P2;SDS_P1;SDS_P2;PMS_P1;PMS_P2;Temp;Humidity;BMP_temperature;BMP_pressure;BME280_temperature;BME280_humidity;BME280_pressure;Samples;Min_cycle;Max_cycle;Signal;HPM_P1;HPM_P2
2021/08/26 00:01:11;;;;;;;;;;;;;;;19.12;81.42;99379.28;5031497;28;1163;-60
2021/08/26 00:06:22;;;;;;;;;;;;;;;18.84;82.09;99386.19;5031496;28;694;-60
2021/08/26 00:08:51;;;;;;;;;;;;;;;18.83;82.54;99387.47;5031503;28;814;-60
2021/08/26 00:11:21;;;;;;;;;;;;;;;18.89;82.63;99383.56;5031427;28;1890;-60
2021/08/26 00:13:50;;;;;;;;;;;;;;;18.93;82.59;99381.38;5031473;28;829;-60
2021/08/26 00:16:18;;;;;;;;;;;;;;;18.98;82.65;99374.34;5031292;28;1523;-60
2021/08/26 00:18:46;;;;;;;;;;;;;;;19.07;82.78;99363.09;5031358;28;826;-60
2021/08/26 00:21:13;;;;;;;;;;;;;;;19.13;82.43;99366.81;5031685;28;825;-60
2021/08/26 00:23:40;;;;;;;;;;;;;;;19.12;82.16;99368.09;5031469;28;997;-60
2021/08/26 00:26:07;;;;;;;;;;;;;;;19.08;82.20;99372.31;5031932;28;811;-60
2021/08/26 00:28:34;;;;;;;;;;;;;;;18.97;82.16;99370.78;5031433;28;916;-60
2021/08/26 00:31:01;;;;;;;;;;;;;;;18.88;82.22;99362.41;5031851;28;1914;-60
2021/08/26 00:33:27;;;;;;;;;;;;;;;18.81;82.48;99351.53;5031643;28;814;-60
2021/08/26 00:35:54;;;;;;;;;;;;;;;18.87;82.50;99355.25;5031540;28;805;-60
2021/08/26 00:38:21;;;;;;;;;;;;;;;18.89;82.28;99358.34;5031222;28;807;-60
2021/08/26 00:40:51;;;;;;;;;;;;;;;18.86;82.33;99355.69;5031128;28;802;-60
2021/08/26 00:43:18;;;;;;;;;;;;;;;18.82;82.46;99349.50;5031316;28;814;-60
2021/08/26 00:45:45;;;;;;;;;;;;;;;18.77;82.46;99350.88;5031263;28;870;-59
2021/08/26 00:48:12;;;;;;;;;;;;;;;18.71;82.67;99344.34;5031313;28;840;-60
2021/08/26 00:50:38;;;;;;;;;;;;;;;18.64;82.87;99345.47;5031347;28;1951;-60
2021/08/26 00:53:05;;;;;;;;;;;;;;;18.63;83.23;99331.94;5031400;28;916;-60
2021/08/26 00:55:31;;;;;;;;;;;;;;;18.67;83.49;99330.53;5031532;28;874;-60
2021/08/26 00:57:57;;;;;;;;;;;;;;;18.73;83.42;99313.88;5031399;28;799;-60
2021/08/26 01:00:24;;;;;;;;;;;;;;;18.74;83.30;99318.25;5031566;28;795;-60
2021/08/26 01:02:54;;;;;;;;;;;;;;;18.66;83.32;99319.81;5033208;28;841;-60
2021/08/26 01:05:27;;;;;;;;;;;;;;;18.57;83.51;99321.38;5034910;28;870;-60
2021/08/26 01:08:01;;;;;;;;;;;;;;;18.47;83.53;99319.84;5034512;28;850;-60
2021/08/26 01:10:29;;;;;;;;;;;;;;;18.34;83.53;99320.00;5034627;28;1953;-59
2021/08/26 01:12:58;;;;;;;;;;;;;;;18.23;83.91;99322.50;5034504;28;830;-60
2021/08/26 01:15:26;;;;;;;;;;;;;;;18.26;84.44;99321.56;5034609;28;919;-60
2021/08/26 01:17:54;;;;;;;;;;;;;;;18.44;84.45;99325.59;5034270;28;1295;-59
2021/08/26 01:20:21;;;;;;;;;;;;;;;18.56;84.23;99322.63;5034351;28;791;-60
2021/08/26 01:22:48;;;;;;;;;;;;;;;18.65;84.05;99318.25;5034416;28;803;-60
2021/08/26 01:25:16;;;;;;;;;;;;;;;18.67;84.07;99304.56;5034114;28;841;-60
2021/08/26 01:27:44;;;;;;;;;;;;;;;18.67;83.91;99290.56;5034853;28;806;-60
2021/08/26 01:30:13;;;;;;;;;;;;;;;18.66;83.95;99289.78;5034307;28;1971;-60
2021/08/26 01:32:41;;;;;;;;;;;;;;;18.67;84.04;99294.16;5034186;28;818;-60
2021/08/26 01:35:07;;;;;;;;;;;;;;;18.66;83.93;99291.81;5034224;28;842;-60
2021/08/26 01:37:36;;;;;;;;;;;;;;;18.69;83.98;99296.47;5034000;28;862;-60
2021/08/26 01:40:03;;;;;;;;;;;;;;;18.71;83.73;99305.16;5034052;28;827;-59
2021/08/26 01:42:29;;;;;;;;;;;;;;;18.68;83.72;99304.09;5033946;28;1030;-59
2021/08/26 01:44:56;;;;;;;;;;;;;;;18.65;83.83;99301.44;5032624;28;1160;-60
2021/08/26 01:47:23;;;;;;;;;;;;;;;18.58;83.84;99313.75;5033982;28;884;-60
2021/08/26 01:49:52;;;;;;;;;;;;;;;18.50;83.81;99298.56;5033816;28;1894;-60
2021/08/26 01:52:21;;;;;;;;;;;;;;;18.38;83.84;99300.25;5033632;28;937;-60
2021/08/26 01:54:50;;;;;;;;;;;;;;;18.29;83.75;99287.06;5033679;28;795;-60
2021/08/26 01:57:17;;;;;;;;;;;;;;;18.26;83.72;99281.63;5033753;28;862;-60
2021/08/26 01:59:44;;;;;;;;;;;;;;;18.24;83.52;99267.34;5033606;28;819;-60
2021/08/26 02:02:12;;;;;;;;;;;;;;;18.26;83.47;99264.84;5033739;28;841;-60
2021/08/26 02:04:38;;;;;;;;;;;;;;;18.35;83.31;99262.81;5033576;28;892;-60
2021/08/26 02:07:05;;;;;;;;;;;;;;;18.43;83.10;99266.06;5033523;28;854;-60
2021/08/26 02:09:31;;;;;;;;;;;;;;;18.55;82.79;99278.31;5033460;28;819;-60
2021/08/26 02:11:57;;;;;;;;;;;;;;;18.73;82.19;99286.69;5033408;28;1935;-60
2021/08/26 02:14:24;;;;;;;;;;;;;;;18.94;81.46;99290.50;5030960;28;1187;-60
2021/08/26 02:16:51;;;;;;;;;;;;;;;19.09;80.81;99281.41;5033181;28;1265;-60
2021/08/26 02:19:17;;;;;;;;;;;;;;;19.09;80.49;99270.22;5033350;28;799;-60
2021/08/26 02:21:44;;;;;;;;;;;;;;;19.05;80.65;99264.00;5033207;28;814;-60
2021/08/26 02:24:10;;;;;;;;;;;;;;;19.03;80.81;99264.47;5033047;28;814;-60
2021/08/26 02:26:37;;;;;;;;;;;;;;;19.06;80.66;99257.19;5033149;28;889;-60
2021/08/26 02:29:04;;;;;;;;;;;;;;;19.12;80.77;99258.84;5033081;28;810;-60
2021/08/26 02:31:31;;;;;;;;;;;;;;;19.24;80.36;99251.47;5032964;28;1965;-60
2021/08/26 02:33:58;;;;;;;;;;;;;;;19.37;79.70;99254.81;5033233;28;901;-60
2021/08/26 02:36:24;;;;;;;;;;;;;;;19.41;79.32;99260.22;5033013;28;862;-60
2021/08/26 02:38:51;;;;;;;;;;;;;;;19.35;79.32;99251.72;5032890;28;890;-60
2021/08/26 02:41:18;;;;;;;;;;;;;;;19.27;79.57;99252.56;5032911;28;806;-59
2021/08/26 02:43:45;;;;;;;;;;;;;;;19.18;79.63;99256.16;5032961;28;807;-60
2021/08/26 02:46:12;;;;;;;;;;;;;;;19.10;80.07;99263.38;5032789;28;873;-59
2021/08/26 02:48:38;;;;;;;;;;;;;;;19.00;80.15;99256.28;5032817;28;814;-60
2021/08/26 02:51:05;;;;;;;;;;;;;;;18.94;80.41;99251.28;5032911;28;1947;-60
2021/08/26 02:53:32;;;;;;;;;;;;;;;18.86;80.74;99247.31;5032514;28;864;-60
2021/08/26 02:55:59;;;;;;;;;;;;;;;18.88;80.83;99244.00;5032623;28;874;-60
2021/08/26 02:58:26;;;;;;;;;;;;;;;18.89;80.81;99249.16;5032533;28;807;-60
2021/08/26 03:00:52;;;;;;;;;;;;;;;18.86;80.79;99241.72;5032430;28;876;-60
2021/08/26 03:03:19;;;;;;;;;;;;;;;18.84;80.76;99246.22;5032776;28;823;-60
2021/08/26 03:05:45;;;;;;;;;;;;;;;18.80;80.77;99251.19;5032489;28;830;-59
2021/08/26 03:08:14;;;;;;;;;;;;;;;18.81;80.71;99252.78;5032569;28;803;-60
2021/08/26 03:10:40;;;;;;;;;;;;;;;18.77;80.55;99258.50;5032190;28;1945;-60
2021/08/26 03:13:06;;;;;;;;;;;;;;;18.68;80.70;99261.34;5032288;28;822;-59
2021/08/26 03:15:33;;;;;;;;;;;;;;;18.63;81.00;99268.34;5032640;28;1051;-59
2021/08/26 03:18:00;;;;;;;;;;;;;;;18.63;80.95;99261.97;5032106;28;1288;-59
2021/08/26 03:20:27;;;;;;;;;;;;;;;18.64;80.99;99264.28;5032388;28;811;-59
2021/08/26 03:22:54;;;;;;;;;;;;;;;18.65;80.90;99265.06;5032416;28;819;-59
2021/08/26 03:25:20;;;;;;;;;;;;;;;18.63;80.85;99270.38;5031963;28;854;-60
2021/08/26 03:27:47;;;;;;;;;;;;;;;18.56;81.03;99268.66;5032325;28;865;-60
2021/08/26 03:30:13;;;;;;;;;;;;;;;18.48;81.22;99276.63;5032179;28;1906;-59
2021/08/26 03:32:40;;;;;;;;;;;;;;;18.41;81.48;99282.53;5032749;28;767;-60
2021/08/26 03:35:07;;;;;;;;;;;;;;;18.31;81.78;99283.81;5031941;28;829;-60
2021/08/26 03:37:34;;;;;;;;;;;;;;;18.17;82.00;99279.63;5032242;28;779;-59
2021/08/26 03:40:00;;;;;;;;;;;;;;;18.06;82.24;99282.88;5031918;28;829;-60
2021/08/26 03:42:27;;;;;;;;;;;;;;;17.96;82.72;99292.50;5032098;28;838;-60
2021/08/26 03:44:54;;;;;;;;;;;;;;;17.90;82.70;99285.97;5031776;28;838;-59
2021/08/26 03:47:20;;;;;;;;;;;;;;;17.87;82.94;99298.09;5031772;28;866;-60
2021/08/26 03:49:46;;;;;;;;;;;;;;;17.90;82.91;99299.97;5031848;28;863;-60
2021/08/26 03:52:13;;;;;;;;;;;;;;;17.92;82.94;99289.88;5031541;28;1950;-59
2021/08/26 03:54:39;;;;;;;;;;;;;;;17.90;82.85;99289.56;5031728;28;814;-60
2021/08/26 03:57:05;;;;;;;;;;;;;;;17.88;83.02;99282.88;5031483;28;913;-60
2021/08/26 03:59:32;;;;;;;;;;;;;;;17.89;83.19;99288.00;5031739;28;818;-60
2021/08/26 04:01:59;;;;;;;;;;;;;;;17.92;82.96;99298.28;5031534;28;807;-59
2021/08/26 04:04:25;;;;;;;;;;;;;;;17.92;82.95;99303.06;5031692;28;806;-59
2021/08/26 04:06:52;;;;;;;;;;;;;;;17.98;83.15;99301.22;5031514;28;860;-59
2021/08/26 04:09:19;;;;;;;;;;;;;;;18.09;82.93;99315.53;5031542;28;831;-59
2021/08/26 04:11:45;;;;;;;;;;;;;;;18.20;82.58;99314.25;5031331;28;1953;-59
2021/08/26 04:14:12;;;;;;;;;;;;;;;18.29;82.29;99315.03;5031477;28;842;-60
2021/08/26 04:16:38;;;;;;;;;;;;;;;18.39;82.07;99315.78;5031480;28;1216;-60
2021/08/26 04:19:05;;;;;;;;;;;;;;;18.48;81.67;99320.63;5031442;28;834;-60
2021/08/26 04:21:32;;;;;;;;;;;;;;;18.60;81.41;99319.66;5031352;28;826;-60
2021/08/26 04:23:58;;;;;;;;;;;;;;;18.74;80.90;99309.84;5031461;28;850;-60
2021/08/26 04:26:25;;;;;;;;;;;;;;;18.91;80.52;99318.69;5031255;28;958;-60
2021/08/26 04:28:51;;;;;;;;;;;;;;;19.07;80.15;99321.09;5031315;28;838;-59
2021/08/26 04:31:18;;;;;;;;;;;;;;;19.23;79.59;99325.56;5031254;28;1977;-60
2021/08/26 04:33:44;;;;;;;;;;;;;;;19.43;79.09;99330.59;5031292;28;799;-60
2021/08/26 04:36:11;;;;;;;;;;;;;;;19.72;78.66;99327.19;5031234;28;889;-60
2021/08/26 04:38:38;;;;;;;;;;;;;;;20.09;77.39;99323.34;5034901;28;826;-59
2021/08/26 04:41:05;;;;;;;;;;;;;;;20.49;76.06;99322.84;5035134;28;861;-59
2021/08/26 04:43:32;;;;;;;;;;;;;;;20.94;74.68;99332.06;5035250;28;870;-60
2021/08/26 04:45:59;;;;;;;;;;;;;;;21.38;73.09;99328.41;5035035;28;807;-60
2021/08/26 04:48:25;;;;;;;;;;;;;;;21.80;72.01;99330.03;5034935;28;952;-60
2021/08/26 04:50:52;;;;;;;;;;;;;;;22.11;69.88;99328.63;5034783;28;1926;-60
2021/08/26 04:53:18;;;;;;;;;;;;;;;22.29;69.43;99324.00;5034861;28;848;-60
2021/08/26 04:55:45;;;;;;;;;;;;;;;22.51;68.96;99331.88;5034925;28;842;-60
2021/08/26 04:58:11;;;;;;;;;;;;;;;22.72;68.02;99330.56;5034798;28;818;-60
2021/08/26 05:00:38;;;;;;;;;;;;;;;22.97;66.77;99339.50;5034779;28;857;-60
2021/08/26 05:03:05;;;;;;;;;;;;;;;23.14;66.21;99348.13;5034721;28;819;-60
2021/08/26 05:05:32;;;;;;;;;;;;;;;23.19;65.58;99341.75;5034659;28;882;-60
2021/08/26 05:07:58;;;;;;;;;;;;;;;23.01;65.89;99349.28;5034643;28;842;-60
2021/08/26 05:15:37;;;;;;;;;;;;;;;23.27;64.27;99337.19;5773965;22;1528;-60
2021/08/26 05:18:04;;;;;;;;;;;;;;;23.38;64.12;99339.31;5034430;28;837;-60
2021/08/26 05:20:31;;;;;;;;;;;;;;;23.61;63.71;99332.53;5034456;28;798;-60
2021/08/26 05:22:57;;;;;;;;;;;;;;;23.93;63.01;99331.69;5034335;28;892;-60
2021/08/26 05:25:25;;;;;;;;;;;;;;;24.31;61.56;99338.00;5034351;28;849;-60
2021/08/26 05:27:52;;;;;;;;;;;;;;;24.70;60.78;99332.44;5034484;28;896;-60
2021/08/26 05:30:19;;;;;;;;;;;;;;;25.29;59.26;99338.41;5034133;28;1983;-60
2021/08/26 05:32:46;;;;;;;;;;;;;;;25.72;57.58;99347.31;5034217;28;929;-60
2021/08/26 05:35:12;;;;;;;;;;;;;;;26.02;56.36;99335.41;5034152;28;912;-60
2021/08/26 05:37:38;;;;;;;;;;;;;;;25.86;54.16;99334.91;5034177;28;845;-61
2021/08/26 05:40:05;;;;;;;;;;;;;;;25.20;55.31;99336.59;5034027;28;818;-61
2021/08/26 05:42:32;;;;;;;;;;;;;;;24.81;56.94;99334.50;5032774;28;1259;-60
2021/08/26 05:44:59;;;;;;;;;;;;;;;24.67;56.96;99339.13;5033810;28;897;-61
2021/08/26 05:47:25;;;;;;;;;;;;;;;24.24;57.88;99336.44;5033926;28;802;-61
2021/08/26 05:49:52;;;;;;;;;;;;;;;24.12;58.60;99332.03;5033921;28;850;-61
2021/08/26 05:52:18;;;;;;;;;;;;;;;23.89;58.64;99326.28;5033774;28;1883;-61
2021/08/26 05:54:45;;;;;;;;;;;;;;;23.75;59.48;99322.38;5033805;28;901;-60
2021/08/26 05:57:11;;;;;;;;;;;;;;;23.71;59.78;99315.41;5033744;28;834;-60
2021/08/26 05:59:38;;;;;;;;;;;;;;;23.57;60.18;99319.94;5033707;28;834;-60
2021/08/26 06:02:04;;;;;;;;;;;;;;;23.50;60.63;99318.38;5033658;28;811;-60
2021/08/26 06:04:30;;;;;;;;;;;;;;;23.62;60.43;99327.69;5033638;28;900;-61
2021/08/26 06:06:57;;;;;;;;;;;;;;;24.36;58.29;99325.94;5033540;28;822;-61
2021/08/26 06:09:24;;;;;;;;;;;;;;;24.65;56.50;99327.56;5032281;28;1168;-60
2021/08/26 06:11:51;;;;;;;;;;;;;;;25.01;55.71;99320.13;5033448;28;1886;-61
2021/08/26 06:14:17;;;;;;;;;;;;;;;26.26;53.17;99320.59;5033368;28;849;-61
2021/08/26 06:16:44;;;;;;;;;;;;;;;27.51;50.37;99315.53;5033321;28;1198;-61
2021/08/26 06:19:11;;;;;;;;;;;;;;;28.15;48.17;99312.22;5033359;28;826;-61
2021/08/26 06:21:38;;;;;;;;;;;;;;;28.68;46.50;99303.22;5033472;28;794;-61
2021/08/26 06:24:06;;;;;;;;;;;;;;;29.09;45.19;99307.69;5033276;28;811;-61
2021/08/26 06:26:34;;;;;;;;;;;;;;;29.33;44.63;99317.41;5033258;28;814;-61
2021/08/26 06:29:01;;;;;;;;;;;;;;;29.65;43.70;99320.16;5033038;28;823;-61
2021/08/26 06:31:27;;;;;;;;;;;;;;;29.67;43.31;99326.06;5033174;28;1993;-61
2021/08/26 06:33:54;;;;;;;;;;;;;;;29.38;43.84;99325.84;5033233;28;885;-61
2021/08/26 06:36:21;;;;;;;;;;;;;;;29.16;44.02;99332.69;5033038;28;810;-61
2021/08/26 06:38:47;;;;;;;;;;;;;;;28.55;45.18;99332.34;5033009;28;818;-61
2021/08/26 06:41:14;;;;;;;;;;;;;;;27.86;46.69;99323.16;5032950;28;877;-61
2021/08/26 06:43:40;;;;;;;;;;;;;;;27.83;47.32;99337.63;5032853;28;892;-61
2021/08/26 06:46:06;;;;;;;;;;;;;;;28.19;46.77;99329.72;5032798;28;854;-61
2021/08/26 06:48:32;;;;;;;;;;;;;;;27.97;46.74;99330.00;5032818;28;811;-61
2021/08/26 06:50:59;;;;;;;;;;;;;;;27.80;47.22;99328.13;5032639;28;1890;-61
2021/08/26 06:53:25;;;;;;;;;;;;;;;27.79;47.36;99322.97;5032739;28;869;-61
2021/08/26 06:55:52;;;;;;;;;;;;;;;27.73;47.99;99317.34;5032671;28;799;-61
2021/08/26 06:58:19;;;;;;;;;;;;;;;27.68;47.88;99315.34;5032780;28;802;-61
2021/08/26 07:00:45;;;;;;;;;;;;;;;28.01;47.05;99314.19;5032019;28;835;-61
2021/08/26 07:03:12;;;;;;;;;;;;;;;28.43;46.66;99331.69;5032806;28;806;-61
2021/08/26 07:05:38;;;;;;;;;;;;;;;29.78;43.63;99327.94;5032464;28;865;-61
2021/08/26 07:08:06;;;;;;;;;;;;;;;30.46;42.31;99333.00;5032615;28;850;-61
2021/08/26 07:10:32;;;;;;;;;;;;;;;31.36;40.97;99332.91;5032382;28;1906;-61
2021/08/26 07:12:59;;;;;;;;;;;;;;;30.85;41.92;99334.94;5032362;28;814;-61
2021/08/26 07:15:25;;;;;;;;;;;;;;;30.67;42.24;99333.81;5032467;28;1330;-62
2021/08/26 07:17:52;;;;;;;;;;;;;;;30.81;41.08;99325.97;5032530;28;778;-61
2021/08/26 07:20:19;;;;;;;;;;;;;;;31.46;40.65;99319.69;5032527;28;881;-62
2021/08/26 07:22:45;;;;;;;;;;;;;;;32.77;38.01;99312.47;5032464;28;806;-61
2021/08/26 07:25:12;;;;;;;;;;;;;;;33.95;35.66;99316.97;5032417;28;799;-61
2021/08/26 07:27:39;;;;;;;;;;;;;;;34.29;35.08;99314.94;5032438;28;775;-61
2021/08/26 07:30:06;;;;;;;;;;;;;;;33.80;35.48;99325.63;5031964;28;1910;-62
2021/08/26 07:32:32;;;;;;;;;;;;;;;32.49;37.55;99316.94;5032318;28;787;-62
2021/08/26 07:34:58;;;;;;;;;;;;;;;31.32;39.08;99325.47;5031885;28;830;-62
2021/08/26 07:37:25;;;;;;;;;;;;;;;30.58;41.25;99320.03;5031980;28;794;-61
2021/08/26 07:39:51;;;;;;;;;;;;;;;30.28;41.82;99324.06;5032019;28;799;-61
2021/08/26 07:42:20;;;;;;;;;;;;;;;30.32;41.87;99318.81;5031819;28;842;-61
2021/08/26 07:44:47;;;;;;;;;;;;;;;31.19;40.48;99322.69;5031633;28;1040;-61
2021/08/26 07:47:12;;;;;;;;;;;;;;;32.10;38.91;99327.50;5031704;28;841;-61
2021/08/26 07:49:39;;;;;;;;;;;;;;;31.45;39.95;99329.56;5031727;28;806;-62
2021/08/26 07:52:06;;;;;;;;;;;;;;;30.46;41.20;99319.50;5031632;28;1910;-61
2021/08/26 07:54:34;;;;;;;;;;;;;;;29.89;42.65;99317.13;5031673;28;858;-61
2021/08/26 07:57:01;;;;;;;;;;;;;;;29.70;43.92;99320.09;5030339;28;1311;-61
2021/08/26 07:59:27;;;;;;;;;;;;;;;30.81;42.48;99320.28;5031627;28;869;-61
2021/08/26 08:01:54;;;;;;;;;;;;;;;32.25;38.89;99309.66;5031631;28;810;-61
2021/08/26 08:04:20;;;;;;;;;;;;;;;33.20;36.76;99302.19;5031588;28;862;-61
2021/08/26 08:06:47;;;;;;;;;;;;;;;33.48;36.18;99306.94;5031560;28;818;-61
2021/08/26 08:09:14;;;;;;;;;;;;;;;33.07;36.51;99317.47;5031865;28;826;-61
2021/08/26 08:11:41;;;;;;;;;;;;;;;33.09;36.47;99308.31;5030589;28;1889;-61
2021/08/26 08:14:07;;;;;;;;;;;;;;;33.56;35.78;99304.84;5035637;28;935;-61
2021/08/26 08:16:34;;;;;;;;;;;;;;;34.42;34.23;99308.16;5035498;28;1261;-61
2021/08/26 08:18:59;;;;;;;;;;;;;;;34.65;33.69;99300.19;5035507;28;853;-62
2021/08/26 08:21:26;;;;;;;;;;;;;;;34.96;33.69;99300.75;5035443;28;933;-61
2021/08/26 08:23:53;;;;;;;;;;;;;;;35.47;32.98;99310.09;5035505;28;834;-61
2021/08/26 08:26:20;;;;;;;;;;;;;;;35.30;32.72;99289.97;5035402;28;901;-61
2021/08/26 08:28:47;;;;;;;;;;;;;;;35.07;33.01;99298.75;5035409;28;850;-62
2021/08/26 08:31:14;;;;;;;;;;;;;;;34.85;32.65;99291.84;5035472;28;1975;-62
2021/08/26 08:33:44;;;;;;;;;;;;;;;34.82;33.07;99293.00;5035287;28;889;-61
2021/08/26 08:36:11;;;;;;;;;;;;;;;34.81;33.52;99294.38;5035190;28;853;-61
2021/08/26 08:38:37;;;;;;;;;;;;;;;34.84;32.91;99287.44;5035201;28;850;-61
2021/08/26 08:41:04;;;;;;;;;;;;;;;34.57;33.36;99293.75;5035134;28;870;-62
2021/08/26 08:43:31;;;;;;;;;;;;;;;34.20;33.76;99298.34;5034972;28;830;-61
2021/08/26 08:45:58;;;;;;;;;;;;;;;33.75;34.94;99298.69;5035277;28;878;-62
2021/08/26 08:48:27;;;;;;;;;;;;;;;33.18;35.80;99299.16;5035288;28;827;-61
2021/08/26 08:50:56;;;;;;;;;;;;;;;32.44;37.37;99297.13;5034841;28;1955;-62
2021/08/26 08:53:22;;;;;;;;;;;;;;;33.15;36.26;99297.44;5035007;28;826;-61
2021/08/26 08:55:49;;;;;;;;;;;;;;;33.74;35.29;99302.13;5034891;28;905;-62
2021/08/26 08:58:16;;;;;;;;;;;;;;;33.32;35.63;99294.72;5034846;28;819;-61
2021/08/26 09:00:43;;;;;;;;;;;;;;;32.08;38.35;99301.56;5034816;28;894;-61
2021/08/26 09:03:09;;;;;;;;;;;;;;;31.10;40.50;99301.13;5034788;28;865;-61
2021/08/26 09:05:53;;;;;;;;;;;;;;;31.43;40.64;99287.31;5034712;28;806;-63
2021/08/26 09:08:22;;;;;;;;;;;;;;;32.86;37.74;99265.34;5034725;28;817;-62
2021/08/26 09:10:48;;;;;;;;;;;;;;;33.18;36.37;99258.28;5034566;28;1894;-62
2021/08/26 09:13:14;;;;;;;;;;;;;;;32.81;37.22;99272.03;5034425;28;815;-62
2021/08/26 09:15:46;;;;;;;;;;;;;;;33.33;36.80;99261.91;5034337;28;1179;-62
2021/08/26 09:18:17;;;;;;;;;;;;;;;34.02;35.96;99260.19;5034789;28;869;-61
2021/08/26 09:20:54;;;;;;;;;;;;;;;34.21;35.13;99262.59;5034532;28;898;-62
2021/08/26 09:23:24;;;;;;;;;;;;;;;33.14;36.48;99261.56;5033983;28;833;-62
2021/08/26 09:25:52;;;;;;;;;;;;;;;32.17;38.03;99268.06;5034326;28;802;-62
2021/08/26 09:28:30;;;;;;;;;;;;;;;31.68;39.13;99267.66;5034303;28;877;-61
2021/08/26 09:31:15;;;;;;;;;;;;;;;31.50;39.60;99260.91;5034185;28;1917;-62
2021/08/26 09:33:51;;;;;;;;;;;;;;;31.33;39.50;99255.63;5034177;28;854;-61
2021/08/26 09:36:27;;;;;;;;;;;;;;;30.92;41.05;99260.09;5034205;28;822;-61
2021/08/26 09:38:57;;;;;;;;;;;;;;;30.88;40.74;99251.13;5034258;28;1058;-61
2021/08/26 09:41:43;;;;;;;;;;;;;;;30.63;41.62;99253.53;5034136;28;819;-61
2021/08/26 09:44:13;;;;;;;;;;;;;;;30.67;41.09;99248.25;5034417;28;959;-62
2021/08/26 09:46:41;;;;;;;;;;;;;;;30.69;41.17;99248.47;5034120;28;815;-61
2021/08/26 09:49:08;;;;;;;;;;;;;;;30.59;41.86;99249.50;5033889;28;846;-61
2021/08/26 09:51:35;;;;;;;;;;;;;;;30.63;41.20;99249.94;5033838;28;1947;-61
2021/08/26 09:54:02;;;;;;;;;;;;;;;30.56;40.91;99244.94;5033837;28;819;-61
2021/08/26 09:56:38;;;;;;;;;;;;;;;30.47;41.24;99237.59;5033793;28;803;-61
2021/08/26 09:59:06;;;;;;;;;;;;;;;30.56;41.48;99228.56;5033778;28;972;-61
2021/08/26 10:01:36;;;;;;;;;;;;;;;30.95;40.56;99221.13;5033569;28;942;-61
2021/08/26 10:04:03;;;;;;;;;;;;;;;31.67;39.70;99225.38;5033653;28;846;-62
2021/08/26 10:06:31;;;;;;;;;;;;;;;31.86;39.36;99228.69;5033620;28;794;-62
2021/08/26 10:08:59;;;;;;;;;;;;;;;31.33;39.49;99223.47;5033510;28;917;-61
2021/08/26 10:11:27;;;;;;;;;;;;;;;30.69;40.38;99228.50;5033210;28;1985;-62
2021/08/26 10:13:54;;;;;;;;;;;;;;;30.19;41.14;99221.91;5034067;28;842;-61
2021/08/26 10:16:20;;;;;;;;;;;;;;;30.16;41.32;99217.31;5033359;28;1238;-61
2021/08/26 10:18:47;;;;;;;;;;;;;;;30.50;40.74;99210.84;5032058;28;1184;-62
2021/08/26 10:21:16;;;;;;;;;;;;;;;31.23;39.47;99213.88;5033870;28;814;-62
2021/08/26 10:23:46;;;;;;;;;;;;;;;31.21;39.41;99216.53;5033785;28;842;-62
2021/08/26 10:26:15;;;;;;;;;;;;;;;31.01;39.44;99204.63;5033298;28;843;-62
2021/08/26 10:28:42;;;;;;;;;;;;;;;30.79;39.41;99203.13;5033107;28;1037;-61
2021/08/26 10:31:25;;;;;;;;;;;;;;;31.65;39.09;99196.63;5033010;28;1913;-62
2021/08/26 10:34:07;;;;;;;;;;;;;;;32.48;37.03;99189.59;5033650;28;743;-62
2021/08/26 10:37:06;;;;;;;;;;;;;;;32.56;37.46;99195.34;5032728;28;815;-62
2021/08/26 10:39:34;;;;;;;;;;;;;;;32.53;36.97;99190.78;4999784;28;1235;-62
2021/08/26 10:42:18;;;;;;;;;;;;;;;32.49;36.67;99193.22;5032984;28;866;-62
2021/08/26 10:45:03;;;;;;;;;;;;;;;31.98;37.68;99191.22;5032899;28;819;-62
2021/08/26 10:48:03;;;;;;;;;;;;;;;31.19;39.00;99190.66;5033399;28;806;-62
2021/08/26 10:50:33;;;;;;;;;;;;;;;31.07;39.28;99187.34;4999876;28;1882;-62
2021/08/26 10:53:25;;;;;;;;;;;;;;;30.99;39.28;99192.25;5032696;28;889;-62
2021/08/26 10:55:53;;;;;;;;;;;;;;;30.75;39.33;99199.84;5032643;28;826;-62
2021/08/26 10:58:26;;;;;;;;;;;;;;;30.64;39.65;99197.25;5032532;28;838;-62
2021/08/26 11:00:58;;;;;;;;;;;;;;;30.78;39.89;99201.56;5032610;28;944;-62
2021/08/26 11:03:34;;;;;;;;;;;;;;;30.79;39.35;99196.63;5032560;28;826;-62
2021/08/26 11:06:22;;;;;;;;;;;;;;;30.74;39.84;99201.91;5032474;28;873;-62
2021/08/26 11:08:53;;;;;;;;;;;;;;;31.09;39.43;99184.72;5032403;28;807;-61
2021/08/26 11:11:32;;;;;;;;;;;;;;;31.47;38.43;99182.09;5032642;28;1953;-62
2021/08/26 11:14:05;;;;;;;;;;;;;;;31.10;39.00;99181.28;5032337;28;834;-62
2021/08/26 11:16:35;;;;;;;;;;;;;;;30.88;39.32;99174.09;5032140;28;1228;-62
2021/08/26 11:19:05;;;;;;;;;;;;;;;30.97;38.91;99161.41;5032704;28;794;-61
2021/08/26 11:24:10;;;;;;;;;;;;;;;32.68;37.01;99139.28;5032174;28;727;-62
2021/08/26 11:26:45;;;;;;;;;;;;;;;34.10;34.64;99135.53;5031999;28;1140;-62
2021/08/26 11:29:18;;;;;;;;;;;;;;;34.89;33.20;99137.97;5032030;28;1001;-62
2021/08/26 11:31:58;;;;;;;;;;;;;;;35.41;32.02;99128.59;5031956;28;1910;-63
2021/08/26 11:34:26;;;;;;;;;;;;;;;35.17;31.47;99135.97;5032260;28;919;-62
2021/08/26 11:37:06;;;;;;;;;;;;;;;34.02;33.11;99126.22;5032336;28;882;-62
2021/08/26 11:39:35;;;;;;;;;;;;;;;32.98;35.24;99126.25;5031775;28;874;-62
2021/08/26 11:42:03;;;;;;;;;;;;;;;33.00;35.42;99135.03;5031863;28;922;-62
2021/08/26 11:44:31;;;;;;;;;;;;;;;33.07;35.52;99130.66;5031803;28;877;-61
2021/08/26 11:47:01;;;;;;;;;;;;;;;32.75;35.49;99127.09;5031624;28;810;-61
2021/08/26 11:49:38;;;;;;;;;;;;;;;32.47;35.83;99119.44;5031992;28;934;-61
2021/08/26 11:52:08;;;;;;;;;;;;;;;32.32;35.98;99128.78;5031615;28;1952;-61
2021/08/26 11:54:39;;;;;;;;;;;;;;;32.20;36.39;99121.94;5031724;28;803;-62
2021/08/26 11:57:06;;;;;;;;;;;;;;;31.99;36.82;99115.63;5031638;28;858;-61
2021/08/26 11:59:33;;;;;;;;;;;;;;;31.76;37.19;99102.00;5031572;28;838;-61
2021/08/26 12:02:13;;;;;;;;;;;;;;;31.79;37.06;99092.28;5030306;28;1297;-61
2021/08/26 12:04:40;;;;;;;;;;;;;;;31.83;37.48;99086.22;5031763;28;814;-62
2021/08/26 12:07:07;;;;;;;;;;;;;;;31.86;37.42;99085.09;5031561;28;894;-61
2021/08/26 12:09:33;;;;;;;;;;;;;;;31.92;37.21;99080.72;5031480;28;826;-61
2021/08/26 12:12:11;;;;;;;;;;;;;;;32.04;37.54;99075.41;5031387;28;1877;-61
2021/08/26 12:14:39;;;;;;;;;;;;;;;32.19;37.01;99079.63;5031420;28;1138;-61
2021/08/26 12:17:16;;;;;;;;;;;;;;;32.02;37.90;99080.19;5031296;28;1282;-61
2021/08/26 12:19:43;;;;;;;;;;;;;;;31.47;39.24;99081.38;5031600;28;905;-61
2021/08/26 12:22:13;;;;;;;;;;;;;;;31.12;40.77;99072.28;5031447;28;844;-61
2021/08/26 12:24:51;;;;;;;;;;;;;;;30.55;42.24;99080.88;5031437;28;901;-61
2021/08/26 12:27:17;;;;;;;;;;;;;;;29.70;44.34;99080.88;5031475;28;889;-62
2021/08/26 12:29:45;;;;;;;;;;;;;;;29.24;45.06;99090.94;5031435;28;846;-61
2021/08/26 12:32:25;;;;;;;;;;;;;;;28.98;45.77;99089.66;5031269;28;1902;-61
2021/08/26 12:34:53;;;;;;;;;;;;;;;28.77;47.21;99091.63;5031223;28;854;-62
2021/08/26 12:37:20;;;;;;;;;;;;;;;28.60;47.81;99095.56;5031297;28;814;-62
2021/08/26 12:39:59;;;;;;;;;;;;;;;28.51;48.97;99095.97;5031478;28;798;-61
2021/08/26 12:42:25;;;;;;;;;;;;;;;28.40;49.36;99087.63;5031113;28;941;-61
2021/08/26 12:44:53;;;;;;;;;;;;;;;28.35;49.48;99097.78;5031329;28;881;-61
2021/08/26 12:47:26;;;;;;;;;;;;;;;28.36;49.57;99095.69;5031241;28;917;-61
2021/08/26 12:49:54;;;;;;;;;;;;;;;28.26;50.09;99101.03;5031323;28;862;-61
2021/08/26 12:52:31;;;;;;;;;;;;;;;28.27;50.26;99111.88;5031062;28;1882;-62
2021/08/26 12:54:58;;;;;;;;;;;;;;;28.37;49.99;99094.41;5031435;28;849;-61
2021/08/26 12:57:25;;;;;;;;;;;;;;;28.48;49.59;99083.59;5031167;28;790;-61
2021/08/26 12:59:52;;;;;;;;;;;;;;;28.43;49.86;99086.53;5034992;28;833;-62
2021/08/26 13:02:18;;;;;;;;;;;;;;;28.22;50.58;99100.59;5033617;28;1588;-61
2021/08/26 13:05:00;;;;;;;;;;;;;;;27.86;51.91;99103.75;5034698;28;969;-61
2021/08/26 13:07:27;;;;;;;;;;;;;;;27.62;52.34;99101.75;5033166;28;1191;-61
2021/08/26 13:09:56;;;;;;;;;;;;;;;27.44;53.22;99104.09;5034613;28;822;-61
2021/08/26 13:12:24;;;;;;;;;;;;;;;27.23;53.75;99108.75;5034844;28;1890;-61
2021/08/26 13:14:52;;;;;;;;;;;;;;;27.01;54.30;99113.38;5034826;28;1030;-60
2021/08/26 13:17:19;;;;;;;;;;;;;;;26.88;55.02;99102.69;5034598;28;1257;-60
2021/08/26 13:19:47;;;;;;;;;;;;;;;26.62;56.40;99111.72;5033354;28;1251;-61
2021/08/26 13:22:21;;;;;;;;;;;;;;;26.44;56.51;99116.00;5034566;28;906;-61